Terminal Aerodrome Forecast
Issued by NWS

Home | Current Version | Previous Version | Text Only | Print | Product List | Glossary Off
Versions: 1 2 3 4 5 6 7 8 9 10 11 12 13 14 15 16 17 18 19 20

000
FTUS43 KMPX 182300
TAFAXN
TAF
KAXN 182330Z 1900/1924 16013KT P6SM BKN150
     FM190700 18016G22KT 6SM BR SCT008 OVC120
      TEMPO 1907/1910 BKN008
     FM191000 18015G22KT 5SM BR OVC006
     FM191300 19016G23KT P6SM VCSH SCT006 OVC012
     FM191900 20014G20KT P6SM -SHRA SCT015 OVC030=

USA.gov is the U.S. government's official web portal to all federal, state and local government web resources and services.